Hyde Park, UT (84318)

7:19 AM MDT on July 28, 2016 (GMT -0600)
Greystone | | Change Station

Elev 4948 ft 41.81 °N, 111.80 °W | Updated 19 minutes ago

Clear
Clear
62.9 °F
Feels Like 62.9 °F
N
0.0
Wind Variable Wind from East
Gusts 11.0 mph

Today
High -- | Low -- °F
--% Chance of Precip.
Yesterday
High -- | Low -- °F
Precip. -- in
Pressure 29.96 in
Visibility 10.0 miles
Clouds Clear
Dew Point 39 °F
Humidity 42%
Rainfall 0.00 in
Snow Depth Not available.
6:17 AM 8:49 PM
Waning Crescent, 32% visible
METAR KLGU 281251Z AUTO 00000KT 10SM CLR 14/08 A3013 RMK AO2 SLP145 T01390083
Pressure 29.96 in
Visibility 10.0 miles
Clouds Clear
Dew Point 39 °F
Humidity 42%
Rainfall 0.00 in
Snow Depth Not available.
6:17 AM 8:49 PM
Waning Crescent, 32% visible
METAR KLGU 281251Z AUTO 00000KT 10SM CLR 14/08 A3013 RMK AO2 SLP145 T01390083

10-Day Weather Forecast

Almanac

Astronomy

Jul. 28, 2016 Rise Set
Actual Time
Civil Twilight
Nautical Twilight
Astronomical Twilight
Moon
Length of Visible Light
Length of Day
Tomorrow will be .
, % of the Moon is Illuminated

Today's Extremes

State Highs State Lows

Community

WunderPhotos

Upload Photos

1,928,108 photos uploaded!

WunderBlog® & News

Nearby

Air Quality

  Air Quality AQ Index Pollutant
Not available.

Snow Depth

Station Depth Elevation

Earthquake Activity

City Distance Mag. Time & Date
Minimum magnitude displayed is 2.5.

Coastal Water Temperatures

Place Temperature

Stations

Nearby Weather Stations

Station Location Temp. Windchill Dew Point Humidity Wind Precip. Elev Updated Type
                   

Watches & Warnings

There are currently no watches in effect.